sensor_id;sensor_type;location;lat;lon;timestamp;P1;durP1;ratioP1;P2;durP2;ratioP2
8183;SDS011;4133;48.752;9.088;2023-03-16T00:02:11;5.60;;;3.90;;
8183;SDS011;4133;48.752;9.088;2023-03-16T00:04:37;5.57;;;3.70;;
8183;SDS011;4133;48.752;9.088;2023-03-16T00:07:07;4.33;;;3.40;;
8183;SDS011;4133;48.752;9.088;2023-03-16T00:09:33;4.97;;;3.67;;
8183;SDS011;4133;48.752;9.088;2023-03-16T00:12:00;5.20;;;3.67;;
8183;SDS011;4133;48.752;9.088;2023-03-16T00:14:30;6.20;;;3.80;;
8183;SDS011;4133;48.752;9.088;2023-03-16T00:16:59;6.73;;;4.17;;
8183;SDS011;4133;48.752;9.088;2023-03-16T00:19:26;5.93;;;4.03;;
8183;SDS011;4133;48.752;9.088;2023-03-16T00:21:52;5.93;;;4.17;;
8183;SDS011;4133;48.752;9.088;2023-03-16T00:24:18;7.80;;;4.77;;
8183;SDS011;4133;48.752;9.088;2023-03-16T00:26:47;6.50;;;3.80;;
8183;SDS011;4133;48.752;9.088;2023-03-16T00:29:14;5.37;;;4.00;;
8183;SDS011;4133;48.752;9.088;2023-03-16T00:31:40;5.53;;;4.33;;
8183;SDS011;4133;48.752;9.088;2023-03-16T00:34:09;8.33;;;4.20;;
8183;SDS011;4133;48.752;9.088;2023-03-16T00:36:35;6.97;;;3.97;;
8183;SDS011;4133;48.752;9.088;2023-03-16T00:39:03;6.00;;;4.10;;
8183;SDS011;4133;48.752;9.088;2023-03-16T00:41:29;5.90;;;3.77;;
8183;SDS011;4133;48.752;9.088;2023-03-16T00:43:55;4.17;;;3.60;;
8183;SDS011;4133;48.752;9.088;2023-03-16T00:46:21;5.97;;;3.20;;
8183;SDS011;4133;48.752;9.088;2023-03-16T00:48:50;3.93;;;3.27;;
8183;SDS011;4133;48.752;9.088;2023-03-16T00:51:16;6.37;;;3.70;;
8183;SDS011;4133;48.752;9.088;2023-03-16T00:53:43;4.60;;;3.63;;
8183;SDS011;4133;48.752;9.088;2023-03-16T00:56:10;7.17;;;3.80;;
8183;SDS011;4133;48.752;9.088;2023-03-16T00:58:37;5.93;;;3.90;;
8183;SDS011;4133;48.752;9.088;2023-03-16T01:01:04;4.20;;;3.40;;
8183;SDS011;4133;48.752;9.088;2023-03-16T01:03:30;5.83;;;3.80;;
8183;SDS011;4133;48.752;9.088;2023-03-16T01:05:56;6.53;;;3.60;;
8183;SDS011;4133;48.752;9.088;2023-03-16T01:08:25;4.43;;;3.70;;
8183;SDS011;4133;48.752;9.088;2023-03-16T01:10:52;4.23;;;3.80;;
8183;SDS011;4133;48.752;9.088;2023-03-16T01:13:18;7.50;;;3.67;;
8183;SDS011;4133;48.752;9.088;2023-03-16T01:15:45;5.10;;;3.40;;
8183;SDS011;4133;48.752;9.088;2023-03-16T01:18:11;4.77;;;3.50;;
8183;SDS011;4133;48.752;9.088;2023-03-16T01:20:38;5.07;;;3.50;;
8183;SDS011;4133;48.752;9.088;2023-03-16T01:23:04;4.43;;;3.20;;
8183;SDS011;4133;48.752;9.088;2023-03-16T01:25:30;5.47;;;3.20;;
8183;SDS011;4133;48.752;9.088;2023-03-16T01:27:56;5.60;;;3.80;;
8183;SDS011;4133;48.752;9.088;2023-03-16T01:30:22;5.40;;;3.60;;
8183;SDS011;4133;48.752;9.088;2023-03-16T01:32:48;6.80;;;3.33;;
8183;SDS011;4133;48.752;9.088;2023-03-16T01:35:15;4.03;;;3.63;;
8183;SDS011;4133;48.752;9.088;2023-03-16T01:40:32;6.80;;;3.77;;
8183;SDS011;4133;48.752;9.088;2023-03-16T01:42:59;6.70;;;4.10;;
8183;SDS011;4133;48.752;9.088;2023-03-16T01:48:10;5.27;;;4.30;;
8183;SDS011;4133;48.752;9.088;2023-03-16T01:50:36;7.63;;;4.60;;
8183;SDS011;4133;48.752;9.088;2023-03-16T01:53:03;5.87;;;3.67;;
8183;SDS011;4133;48.752;9.088;2023-03-16T01:55:29;6.70;;;3.43;;
8183;SDS011;4133;48.752;9.088;2023-03-16T01:57:56;6.63;;;3.80;;
8183;SDS011;4133;48.752;9.088;2023-03-16T02:00:22;4.60;;;3.40;;
8183;SDS011;4133;48.752;9.088;2023-03-16T02:02:56;4.30;;;3.60;;
8183;SDS011;4133;48.752;9.088;2023-03-16T02:05:38;4.63;;;3.60;;
8183;SDS011;4133;48.752;9.088;2023-03-16T02:08:06;4.80;;;4.00;;
8183;SDS011;4133;48.752;9.088;2023-03-16T02:10:33;5.33;;;3.87;;
8183;SDS011;4133;48.752;9.088;2023-03-16T02:12:59;5.57;;;4.27;;
8183;SDS011;4133;48.752;9.088;2023-03-16T02:15:26;4.73;;;4.10;;
8183;SDS011;4133;48.752;9.088;2023-03-16T02:17:51;9.83;;;5.80;;
8183;SDS011;4133;48.752;9.088;2023-03-16T02:22:50;5.93;;;3.70;;
8183;SDS011;4133;48.752;9.088;2023-03-16T02:25:21;5.97;;;4.10;;
8183;SDS011;4133;48.752;9.088;2023-03-16T02:30:23;9.00;;;4.67;;
8183;SDS011;4133;48.752;9.088;2023-03-16T02:32:49;7.07;;;4.67;;
8183;SDS011;4133;48.752;9.088;2023-03-16T02:35:16;8.30;;;5.20;;
8183;SDS011;4133;48.752;9.088;2023-03-16T02:37:47;8.80;;;5.63;;
8183;SDS011;4133;48.752;9.088;2023-03-16T02:42:47;6.37;;;4.87;;
8183;SDS011;4133;48.752;9.088;2023-03-16T02:45:13;7.30;;;5.23;;
8183;SDS011;4133;48.752;9.088;2023-03-16T02:47:40;9.00;;;6.37;;
8183;SDS011;4133;48.752;9.088;2023-03-16T02:50:09;10.90;;;7.60;;
8183;SDS011;4133;48.752;9.088;2023-03-16T02:52:36;13.13;;;9.13;;
8183;SDS011;4133;48.752;9.088;2023-03-16T02:55:02;18.03;;;10.40;;
8183;SDS011;4133;48.752;9.088;2023-03-16T02:57:29;13.40;;;8.30;;
8183;SDS011;4133;48.752;9.088;2023-03-16T02:59:55;18.47;;;8.50;;
8183;SDS011;4133;48.752;9.088;2023-03-16T03:02:21;19.73;;;10.10;;
8183;SDS011;4133;48.752;9.088;2023-03-16T03:04:47;20.80;;;8.50;;
8183;SDS011;4133;48.752;9.088;2023-03-16T03:07:14;22.40;;;8.70;;
8183;SDS011;4133;48.752;9.088;2023-03-16T03:09:40;19.17;;;7.80;;
8183;SDS011;4133;48.752;9.088;2023-03-16T03:12:10;22.27;;;8.13;;
8183;SDS011;4133;48.752;9.088;2023-03-16T03:14:37;18.63;;;8.03;;
8183;SDS011;4133;48.752;9.088;2023-03-16T03:17:03;23.63;;;8.47;;
8183;SDS011;4133;48.752;9.088;2023-03-16T03:19:31;23.67;;;8.47;;
8183;SDS011;4133;48.752;9.088;2023-03-16T03:21:57;27.10;;;7.80;;
8183;SDS011;4133;48.752;9.088;2023-03-16T03:24:23;25.03;;;7.90;;
8183;SDS011;4133;48.752;9.088;2023-03-16T03:26:52;23.83;;;8.50;;
8183;SDS011;4133;48.752;9.088;2023-03-16T03:29:18;19.77;;;8.00;;
8183;SDS011;4133;48.752;9.088;2023-03-16T03:31:44;14.30;;;9.03;;
8183;SDS011;4133;48.752;9.088;2023-03-16T03:34:10;14.57;;;8.63;;
8183;SDS011;4133;48.752;9.088;2023-03-16T03:36:36;17.00;;;9.67;;
8183;SDS011;4133;48.752;9.088;2023-03-16T03:39:02;16.10;;;9.87;;
8183;SDS011;4133;48.752;9.088;2023-03-16T03:41:31;15.10;;;9.60;;
8183;SDS011;4133;48.752;9.088;2023-03-16T03:43:58;15.87;;;9.70;;
8183;SDS011;4133;48.752;9.088;2023-03-16T03:46:24;17.60;;;10.10;;
8183;SDS011;4133;48.752;9.088;2023-03-16T03:48:50;20.80;;;10.33;;
8183;SDS011;4133;48.752;9.088;2023-03-16T03:51:16;20.70;;;10.53;;
8183;SDS011;4133;48.752;9.088;2023-03-16T03:53:43;23.30;;;10.83;;
8183;SDS011;4133;48.752;9.088;2023-03-16T03:56:08;18.67;;;10.90;;
8183;SDS011;4133;48.752;9.088;2023-03-16T03:58:35;19.20;;;11.27;;
8183;SDS011;4133;48.752;9.088;2023-03-16T04:01:01;21.90;;;12.10;;
8183;SDS011;4133;48.752;9.088;2023-03-16T04:03:27;20.07;;;11.67;;
8183;SDS011;4133;48.752;9.088;2023-03-16T04:05:52;20.20;;;11.57;;
8183;SDS011;4133;48.752;9.088;2023-03-16T04:08:18;19.07;;;11.47;;
8183;SDS011;4133;48.752;9.088;2023-03-16T04:10:44;21.47;;;12.17;;
8183;SDS011;4133;48.752;9.088;2023-03-16T04:13:11;26.20;;;12.30;;
8183;SDS011;4133;48.752;9.088;2023-03-16T04:15:37;19.77;;;12.37;;
8183;SDS011;4133;48.752;9.088;2023-03-16T04:18:04;18.70;;;12.17;;
8183;SDS011;4133;48.752;9.088;2023-03-16T04:20:30;17.43;;;11.63;;
8183;SDS011;4133;48.752;9.088;2023-03-16T04:22:56;17.57;;;11.27;;
8183;SDS011;4133;48.752;9.088;2023-03-16T04:25:22;17.90;;;11.53;;
8183;SDS011;4133;48.752;9.088;2023-03-16T04:27:50;16.67;;;11.23;;
8183;SDS011;4133;48.752;9.088;2023-03-16T04:30:16;17.73;;;11.57;;
8183;SDS011;4133;48.752;9.088;2023-03-16T04:32:42;18.63;;;10.97;;
8183;SDS011;4133;48.752;9.088;2023-03-16T04:35:08;17.20;;;10.17;;
8183;SDS011;4133;48.752;9.088;2023-03-16T04:37:36;16.13;;;11.17;;
8183;SDS011;4133;48.752;9.088;2023-03-16T04:40:02;16.93;;;10.37;;
8183;SDS011;4133;48.752;9.088;2023-03-16T04:42:35;14.87;;;10.17;;
8183;SDS011;4133;48.752;9.088;2023-03-16T04:45:01;14.30;;;9.83;;
8183;SDS011;4133;48.752;9.088;2023-03-16T04:47:28;13.70;;;9.13;;
8183;SDS011;4133;48.752;9.088;2023-03-16T04:49:54;13.30;;;9.80;;
8183;SDS011;4133;48.752;9.088;2023-03-16T04:52:20;14.37;;;9.93;;
8183;SDS011;4133;48.752;9.088;2023-03-16T04:54:46;14.87;;;9.30;;
8183;SDS011;4133;48.752;9.088;2023-03-16T04:57:12;13.90;;;9.60;;
8183;SDS011;4133;48.752;9.088;2023-03-16T04:59:38;14.23;;;9.23;;
8183;SDS011;4133;48.752;9.088;2023-03-16T05:02:05;13.17;;;9.33;;
8183;SDS011;4133;48.752;9.088;2023-03-16T05:04:31;12.07;;;8.70;;
8183;SDS011;4133;48.752;9.088;2023-03-16T05:06:58;12.53;;;9.10;;
8183;SDS011;4133;48.752;9.088;2023-03-16T05:09:24;15.43;;;10.33;;
8183;SDS011;4133;48.752;9.088;2023-03-16T05:11:50;14.20;;;9.37;;
8183;SDS011;4133;48.752;9.088;2023-03-16T05:14:16;14.33;;;9.17;;
8183;SDS011;4133;48.752;9.088;2023-03-16T05:16:42;13.73;;;9.07;;
8183;SDS011;4133;48.752;9.088;2023-03-16T05:19:08;12.37;;;8.30;;
8183;SDS011;4133;48.752;9.088;2023-03-16T05:21:34;12.47;;;9.00;;
8183;SDS011;4133;48.752;9.088;2023-03-16T05:24:06;14.93;;;9.13;;
8183;SDS011;4133;48.752;9.088;2023-03-16T05:26:32;14.40;;;7.80;;
8183;SDS011;4133;48.752;9.088;2023-03-16T05:28:58;14.57;;;7.93;;
8183;SDS011;4133;48.752;9.088;2023-03-16T05:31:24;10.77;;;7.83;;
8183;SDS011;4133;48.752;9.088;2023-03-16T05:33:51;13.47;;;8.07;;
8183;SDS011;4133;48.752;9.088;2023-03-16T05:36:18;12.93;;;7.93;;
8183;SDS011;4133;48.752;9.088;2023-03-16T05:41:18;10.40;;;7.63;;
8183;SDS011;4133;48.752;9.088;2023-03-16T05:43:45;10.07;;;6.73;;
8183;SDS011;4133;48.752;9.088;2023-03-16T05:46:12;10.93;;;7.07;;
8183;SDS011;4133;48.752;9.088;2023-03-16T05:48:38;10.23;;;7.20;;
8183;SDS011;4133;48.752;9.088;2023-03-16T05:51:04;10.27;;;6.63;;
8183;SDS011;4133;48.752;9.088;2023-03-16T05:53:33;11.33;;;7.30;;
8183;SDS011;4133;48.752;9.088;2023-03-16T05:56:00;10.93;;;7.13;;
8183;SDS011;4133;48.752;9.088;2023-03-16T05:58:26;12.43;;;6.57;;
8183;SDS011;4133;48.752;9.088;2023-03-16T06:00:52;11.27;;;7.13;;
8183;SDS011;4133;48.752;9.088;2023-03-16T06:03:19;9.87;;;6.37;;
8183;SDS011;4133;48.752;9.088;2023-03-16T06:05:46;11.60;;;6.53;;
8183;SDS011;4133;48.752;9.088;2023-03-16T06:08:12;9.30;;;6.93;;
8183;SDS011;4133;48.752;9.088;2023-03-16T06:10:39;10.33;;;6.70;;
8183;SDS011;4133;48.752;9.088;2023-03-16T06:13:05;8.30;;;5.97;;
8183;SDS011;4133;48.752;9.088;2023-03-16T06:15:31;11.73;;;6.77;;
8183;SDS011;4133;48.752;9.088;2023-03-16T06:17:57;10.20;;;6.60;;
8183;SDS011;4133;48.752;9.088;2023-03-16T06:20:23;10.37;;;6.00;;
8183;SDS011;4133;48.752;9.088;2023-03-16T06:22:49;8.37;;;6.67;;
8183;SDS011;4133;48.752;9.088;2023-03-16T06:25:15;9.80;;;6.70;;
8183;SDS011;4133;48.752;9.088;2023-03-16T06:27:41;9.03;;;6.70;;
8183;SDS011;4133;48.752;9.088;2023-03-16T06:30:08;9.73;;;6.87;;
8183;SDS011;4133;48.752;9.088;2023-03-16T06:32:35;10.10;;;6.13;;
8183;SDS011;4133;48.752;9.088;2023-03-16T06:35:02;11.10;;;7.00;;
8183;SDS011;4133;48.752;9.088;2023-03-16T06:37:33;9.93;;;6.43;;
8183;SDS011;4133;48.752;9.088;2023-03-16T06:39:59;9.63;;;6.43;;
8183;SDS011;4133;48.752;9.088;2023-03-16T06:42:25;7.67;;;5.80;;
8183;SDS011;4133;48.752;9.088;2023-03-16T06:44:51;8.50;;;6.67;;
8183;SDS011;4133;48.752;9.088;2023-03-16T06:47:18;9.57;;;6.50;;
8183;SDS011;4133;48.752;9.088;2023-03-16T06:49:43;9.87;;;6.40;;
8183;SDS011;4133;48.752;9.088;2023-03-16T06:52:11;10.37;;;6.70;;
8183;SDS011;4133;48.752;9.088;2023-03-16T06:54:37;10.47;;;6.80;;
8183;SDS011;4133;48.752;9.088;2023-03-16T06:57:03;10.63;;;7.30;;
8183;SDS011;4133;48.752;9.088;2023-03-16T06:59:30;11.37;;;7.63;;
8183;SDS011;4133;48.752;9.088;2023-03-16T07:01:56;11.67;;;7.97;;
8183;SDS011;4133;48.752;9.088;2023-03-16T07:04:22;10.83;;;7.63;;
8183;SDS011;4133;48.752;9.088;2023-03-16T07:06:48;11.23;;;7.33;;
8183;SDS011;4133;48.752;9.088;2023-03-16T07:09:14;10.63;;;7.20;;
8183;SDS011;4133;48.752;9.088;2023-03-16T07:11:41;9.37;;;7.00;;
8183;SDS011;4133;48.752;9.088;2023-03-16T07:14:07;8.70;;;6.97;;
8183;SDS011;4133;48.752;9.088;2023-03-16T07:16:33;8.73;;;7.50;;
8183;SDS011;4133;48.752;9.088;2023-03-16T07:18:59;9.80;;;7.57;;
8183;SDS011;4133;48.752;9.088;2023-03-16T07:21:25;10.27;;;7.43;;
8183;SDS011;4133;48.752;9.088;2023-03-16T07:23:51;10.10;;;7.77;;
8183;SDS011;4133;48.752;9.088;2023-03-16T07:26:19;12.10;;;8.17;;
8183;SDS011;4133;48.752;9.088;2023-03-16T07:28:45;11.17;;;8.30;;
8183;SDS011;4133;48.752;9.088;2023-03-16T07:31:11;10.93;;;8.67;;
8183;SDS011;4133;48.752;9.088;2023-03-16T07:33:38;11.20;;;8.77;;
8183;SDS011;4133;48.752;9.088;2023-03-16T07:36:04;11.80;;;8.97;;
8183;SDS011;4133;48.752;9.088;2023-03-16T07:38:38;13.10;;;8.77;;
8183;SDS011;4133;48.752;9.088;2023-03-16T07:41:05;10.93;;;8.47;;
8183;SDS011;4133;48.752;9.088;2023-03-16T07:43:31;12.37;;;9.00;;
8183;SDS011;4133;48.752;9.088;2023-03-16T07:45:57;10.23;;;8.60;;
8183;SDS011;4133;48.752;9.088;2023-03-16T07:48:24;11.20;;;8.53;;
8183;SDS011;4133;48.752;9.088;2023-03-16T07:50:50;11.97;;;8.97;;
8183;SDS011;4133;48.752;9.088;2023-03-16T07:53:16;12.57;;;9.13;;
8183;SDS011;4133;48.752;9.088;2023-03-16T07:55:42;11.40;;;8.90;;
8183;SDS011;4133;48.752;9.088;2023-03-16T07:58:09;10.37;;;8.30;;
8183;SDS011;4133;48.752;9.088;2023-03-16T08:00:35;13.03;;;8.10;;
8183;SDS011;4133;48.752;9.088;2023-03-16T08:03:02;10.80;;;8.30;;
8183;SDS011;4133;48.752;9.088;2023-03-16T08:05:28;11.93;;;8.43;;
8183;SDS011;4133;48.752;9.088;2023-03-16T08:07:54;10.07;;;8.03;;
8183;SDS011;4133;48.752;9.088;2023-03-16T08:10:21;10.13;;;8.37;;
8183;SDS011;4133;48.752;9.088;2023-03-16T08:12:47;9.90;;;7.97;;
8183;SDS011;4133;48.752;9.088;2023-03-16T08:15:13;9.70;;;7.90;;
8183;SDS011;4133;48.752;9.088;2023-03-16T08:17:39;8.03;;;6.83;;
8183;SDS011;4133;48.752;9.088;2023-03-16T08:20:05;8.53;;;7.13;;
8183;SDS011;4133;48.752;9.088;2023-03-16T08:22:38;8.67;;;6.47;;
8183;SDS011;4133;48.752;9.088;2023-03-16T08:25:05;9.73;;;6.73;;
8183;SDS011;4133;48.752;9.088;2023-03-16T08:27:34;9.77;;;6.27;;
8183;SDS011;4133;48.752;9.088;2023-03-16T08:30:02;7.55;;;6.50;;
8183;SDS011;4133;48.752;9.088;2023-03-16T08:32:31;10.30;;;6.43;;
8183;SDS011;4133;48.752;9.088;2023-03-16T08:34:57;7.13;;;6.43;;
8183;SDS011;4133;48.752;9.088;2023-03-16T08:39:59;7.00;;;5.33;;
8183;SDS011;4133;48.752;9.088;2023-03-16T08:42:25;6.83;;;5.30;;
8183;SDS011;4133;48.752;9.088;2023-03-16T08:44:55;8.57;;;4.93;;
8183;SDS011;4133;48.752;9.088;2023-03-16T08:47:24;6.50;;;4.80;;
8183;SDS011;4133;48.752;9.088;2023-03-16T08:49:50;7.00;;;4.90;;
8183;SDS011;4133;48.752;9.088;2023-03-16T08:52:16;5.97;;;5.23;;
8183;SDS011;4133;48.752;9.088;2023-03-16T08:54:42;6.10;;;5.23;;
8183;SDS011;4133;48.752;9.088;2023-03-16T08:57:09;5.70;;;4.97;;
8183;SDS011;4133;48.752;9.088;2023-03-16T08:59:36;6.13;;;4.30;;
8183;SDS011;4133;48.752;9.088;2023-03-16T09:02:02;6.40;;;4.13;;
8183;SDS011;4133;48.752;9.088;2023-03-16T09:04:28;5.70;;;4.60;;
8183;SDS011;4133;48.752;9.088;2023-03-16T09:06:55;5.00;;;3.77;;
8183;SDS011;4133;48.752;9.088;2023-03-16T09:09:21;5.83;;;4.40;;
8183;SDS011;4133;48.752;9.088;2023-03-16T09:11:47;6.80;;;4.63;;
8183;SDS011;4133;48.752;9.088;2023-03-16T09:14:13;6.47;;;4.47;;
8183;SDS011;4133;48.752;9.088;2023-03-16T09:16:40;9.27;;;5.60;;
8183;SDS011;4133;48.752;9.088;2023-03-16T09:19:06;9.53;;;5.53;;
8183;SDS011;4133;48.752;9.088;2023-03-16T09:21:32;6.80;;;5.77;;
8183;SDS011;4133;48.752;9.088;2023-03-16T09:24:02;7.07;;;5.17;;
8183;SDS011;4133;48.752;9.088;2023-03-16T09:26:28;7.23;;;5.33;;
8183;SDS011;4133;48.752;9.088;2023-03-16T09:28:54;6.73;;;4.80;;
8183;SDS011;4133;48.752;9.088;2023-03-16T09:31:20;7.87;;;4.93;;
8183;SDS011;4133;48.752;9.088;2023-03-16T09:33:46;7.17;;;5.17;;
8183;SDS011;4133;48.752;9.088;2023-03-16T09:36:13;6.50;;;4.53;;
8183;SDS011;4133;48.752;9.088;2023-03-16T09:46:41;4.90;;;4.07;;
8183;SDS011;4133;48.752;9.088;2023-03-16T09:49:09;6.80;;;4.83;;
8183;SDS011;4133;48.752;9.088;2023-03-16T09:51:57;6.47;;;4.47;;
8183;SDS011;4133;48.752;9.088;2023-03-16T09:54:39;4.93;;;3.90;;
8183;SDS011;4133;48.752;9.088;2023-03-16T09:57:15;5.77;;;3.90;;
8183;SDS011;4133;48.752;9.088;2023-03-16T09:59:44;8.23;;;4.20;;
8183;SDS011;4133;48.752;9.088;2023-03-16T10:04:38;7.30;;;4.00;;
8183;SDS011;4133;48.752;9.088;2023-03-16T10:09:37;4.57;;;3.70;;
8183;SDS011;4133;48.752;9.088;2023-03-16T10:12:05;7.07;;;4.00;;
8183;SDS011;4133;48.752;9.088;2023-03-16T10:14:51;5.97;;;3.57;;
8183;SDS011;4133;48.752;9.088;2023-03-16T10:17:25;6.80;;;3.67;;
8183;SDS011;4133;48.752;9.088;2023-03-16T10:19:56;3.97;;;3.53;;
8183;SDS011;4133;48.752;9.088;2023-03-16T10:22:34;6.83;;;4.03;;
8183;SDS011;4133;48.752;9.088;2023-03-16T10:25:06;4.03;;;3.57;;
8183;SDS011;4133;48.752;9.088;2023-03-16T10:27:34;6.13;;;3.97;;
8183;SDS011;4133;48.752;9.088;2023-03-16T10:30:01;3.97;;;3.50;;
8183;SDS011;4133;48.752;9.088;2023-03-16T10:32:30;4.77;;;4.00;;
8183;SDS011;4133;48.752;9.088;2023-03-16T10:35:03;4.83;;;3.93;;
8183;SDS011;4133;48.752;9.088;2023-03-16T10:37:46;7.50;;;3.43;;
8183;SDS011;4133;48.752;9.088;2023-03-16T10:40:13;4.33;;;2.90;;
8183;SDS011;4133;48.752;9.088;2023-03-16T10:42:40;5.87;;;3.20;;
8183;SDS011;4133;48.752;9.088;2023-03-16T10:45:13;4.47;;;3.47;;
8183;SDS011;4133;48.752;9.088;2023-03-16T10:47:44;4.83;;;3.47;;
8183;SDS011;4133;48.752;9.088;2023-03-16T10:50:11;5.23;;;3.73;;
8183;SDS011;4133;48.752;9.088;2023-03-16T10:52:44;7.83;;;3.40;;
8183;SDS011;4133;48.752;9.088;2023-03-16T10:55:22;6.30;;;3.40;;
8183;SDS011;4133;48.752;9.088;2023-03-16T10:57:50;4.77;;;3.37;;
8183;SDS011;4133;48.752;9.088;2023-03-16T11:02:45;4.13;;;2.80;;
8183;SDS011;4133;48.752;9.088;2023-03-16T11:10:25;5.23;;;2.87;;
8183;SDS011;4133;48.752;9.088;2023-03-16T11:12:52;3.97;;;2.70;;
8183;SDS011;4133;48.752;9.088;2023-03-16T11:15:19;2.70;;;2.50;;
8183;SDS011;4133;48.752;9.088;2023-03-16T11:17:46;3.40;;;2.73;;
8183;SDS011;4133;48.752;9.088;2023-03-16T11:20:16;2.80;;;2.50;;
8183;SDS011;4133;48.752;9.088;2023-03-16T11:22:43;4.07;;;3.00;;
8183;SDS011;4133;48.752;9.088;2023-03-16T11:25:17;4.33;;;2.73;;
8183;SDS011;4133;48.752;9.088;2023-03-16T11:27:51;3.07;;;2.70;;
8183;SDS011;4133;48.752;9.088;2023-03-16T11:30:22;2.77;;;2.50;;
8183;SDS011;4133;48.752;9.088;2023-03-16T11:32:50;4.27;;;2.60;;
8183;SDS011;4133;48.752;9.088;2023-03-16T11:41:08;3.13;;;2.50;;
8183;SDS011;4133;48.752;9.088;2023-03-16T11:43:41;4.20;;;2.90;;
8183;SDS011;4133;48.752;9.088;2023-03-16T11:51:14;3.70;;;2.67;;
8183;SDS011;4133;48.752;9.088;2023-03-16T11:56:17;2.50;;;2.30;;
8183;SDS011;4133;48.752;9.088;2023-03-16T12:14:26;3.85;;;2.13;;
8183;SDS011;4133;48.752;9.088;2023-03-16T12:17:08;2.33;;;2.13;;
8183;SDS011;4133;48.752;9.088;2023-03-16T12:19:45;3.42;;;2.08;;
8183;SDS011;4133;48.752;9.088;2023-03-16T12:24:41;3.22;;;1.88;;
8183;SDS011;4133;48.752;9.088;2023-03-16T12:27:25;2.25;;;2.00;;
8183;SDS011;4133;48.752;9.088;2023-03-16T12:29:57;2.13;;;1.92;;
8183;SDS011;4133;48.752;9.088;2023-03-16T12:41:10;2.50;;;1.98;;
8183;SDS011;4133;48.752;9.088;2023-03-16T12:46:16;2.58;;;1.80;;
8183;SDS011;4133;48.752;9.088;2023-03-16T12:48:51;2.17;;;2.00;;
8183;SDS011;4133;48.752;9.088;2023-03-16T12:51:18;4.70;;;2.03;;
8183;SDS011;4133;48.752;9.088;2023-03-16T12:53:45;2.38;;;2.17;;
8183;SDS011;4133;48.752;9.088;2023-03-16T12:56:18;2.40;;;1.95;;
8183;SDS011;4133;48.752;9.088;2023-03-16T12:58:46;2.00;;;1.90;;
8183;SDS011;4133;48.752;9.088;2023-03-16T13:01:13;2.42;;;1.60;;
8183;SDS011;4133;48.752;9.088;2023-03-16T13:03:40;3.22;;;1.90;;
8183;SDS011;4133;48.752;9.088;2023-03-16T13:06:07;2.17;;;1.52;;
8183;SDS011;4133;48.752;9.088;2023-03-16T13:08:41;2.80;;;1.83;;
8183;SDS011;4133;48.752;9.088;2023-03-16T13:11:09;2.80;;;1.60;;
8183;SDS011;4133;48.752;9.088;2023-03-16T13:16:25;3.55;;;1.55;;
8183;SDS011;4133;48.752;9.088;2023-03-16T13:18:51;3.53;;;1.70;;
8183;SDS011;4133;48.752;9.088;2023-03-16T13:21:19;2.40;;;1.80;;
8183;SDS011;4133;48.752;9.088;2023-03-16T13:26:21;1.40;;;1.30;;
8183;SDS011;4133;48.752;9.088;2023-03-16T13:28:51;1.48;;;1.38;;
8183;SDS011;4133;48.752;9.088;2023-03-16T13:31:39;1.60;;;1.50;;
8183;SDS011;4133;48.752;9.088;2023-03-16T13:34:06;1.90;;;1.60;;
8183;SDS011;4133;48.752;9.088;2023-03-16T13:36:37;2.67;;;1.42;;
8183;SDS011;4133;48.752;9.088;2023-03-16T13:39:16;2.00;;;1.30;;
8183;SDS011;4133;48.752;9.088;2023-03-16T13:41:53;1.40;;;1.30;;
8183;SDS011;4133;48.752;9.088;2023-03-16T13:44:19;1.67;;;1.45;;
8183;SDS011;4133;48.752;9.088;2023-03-16T13:46:48;1.65;;;1.48;;
8183;SDS011;4133;48.752;9.088;2023-03-16T13:49:15;2.15;;;1.70;;
8183;SDS011;4133;48.752;9.088;2023-03-16T13:51:42;1.58;;;1.48;;
8183;SDS011;4133;48.752;9.088;2023-03-16T13:56:51;1.50;;;1.40;;
8183;SDS011;4133;48.752;9.088;2023-03-16T13:59:18;2.10;;;1.70;;
8183;SDS011;4133;48.752;9.088;2023-03-16T14:01:45;1.40;;;1.30;;
8183;SDS011;4133;48.752;9.088;2023-03-16T14:04:13;1.70;;;1.45;;
8183;SDS011;4133;48.752;9.088;2023-03-16T14:06:52;3.25;;;1.45;;
8183;SDS011;4133;48.752;9.088;2023-03-16T14:09:20;3.45;;;1.60;;
8183;SDS011;4133;48.752;9.088;2023-03-16T14:11:47;2.20;;;1.60;;
8183;SDS011;4133;48.752;9.088;2023-03-16T14:14:14;1.77;;;1.60;;
8183;SDS011;4133;48.752;9.088;2023-03-16T14:16:41;2.00;;;1.45;;
8183;SDS011;4133;48.752;9.088;2023-03-16T14:19:13;2.38;;;1.70;;
8183;SDS011;4133;48.752;9.088;2023-03-16T14:21:42;2.70;;;1.63;;
8183;SDS011;4133;48.752;9.088;2023-03-16T14:26:48;1.48;;;1.35;;
8183;SDS011;4133;48.752;9.088;2023-03-16T14:31:43;2.55;;;1.75;;
8183;SDS011;4133;48.752;9.088;2023-03-16T14:34:20;1.63;;;1.40;;
8183;SDS011;4133;48.752;9.088;2023-03-16T14:36:46;1.60;;;1.50;;
8183;SDS011;4133;48.752;9.088;2023-03-16T14:39:13;2.50;;;1.45;;
8183;SDS011;4133;48.752;9.088;2023-03-16T14:41:41;1.40;;;1.30;;
8183;SDS011;4133;48.752;9.088;2023-03-16T14:44:14;3.85;;;1.42;;
8183;SDS011;4133;48.752;9.088;2023-03-16T14:46:42;1.70;;;1.50;;
8183;SDS011;4133;48.752;9.088;2023-03-16T14:49:15;1.83;;;1.23;;
8183;SDS011;4133;48.752;9.088;2023-03-16T14:51:42;1.48;;;1.38;;
8183;SDS011;4133;48.752;9.088;2023-03-16T14:54:10;1.60;;;1.30;;
8183;SDS011;4133;48.752;9.088;2023-03-16T14:56:40;2.70;;;1.65;;
8183;SDS011;4133;48.752;9.088;2023-03-16T14:59:07;2.80;;;1.45;;
8183;SDS011;4133;48.752;9.088;2023-03-16T15:01:33;1.58;;;1.38;;
8183;SDS011;4133;48.752;9.088;2023-03-16T15:03:59;2.72;;;1.50;;
8183;SDS011;4133;48.752;9.088;2023-03-16T15:06:25;2.00;;;1.40;;
8183;SDS011;4133;48.752;9.088;2023-03-16T15:08:51;2.88;;;1.30;;
8183;SDS011;4133;48.752;9.088;2023-03-16T15:11:18;1.90;;;1.40;;
8183;SDS011;4133;48.752;9.088;2023-03-16T15:13:48;2.85;;;1.50;;
8183;SDS011;4133;48.752;9.088;2023-03-16T15:16:14;2.28;;;1.50;;
8183;SDS011;4133;48.752;9.088;2023-03-16T15:18:41;3.55;;;1.90;;
8183;SDS011;4133;48.752;9.088;2023-03-16T15:23:37;1.70;;;1.27;;
8183;SDS011;4133;48.752;9.088;2023-03-16T15:26:03;1.35;;;1.25;;
8183;SDS011;4133;48.752;9.088;2023-03-16T15:28:31;2.38;;;1.27;;
8183;SDS011;4133;48.752;9.088;2023-03-16T15:30:58;1.73;;;1.30;;
8183;SDS011;4133;48.752;9.088;2023-03-16T15:33:24;1.20;;;1.10;;
8183;SDS011;4133;48.752;9.088;2023-03-16T15:35:51;2.35;;;1.33;;
8183;SDS011;4133;48.752;9.088;2023-03-16T15:41:21;1.23;;;1.13;;
8183;SDS011;4133;48.752;9.088;2023-03-16T15:43:47;3.60;;;1.20;;
8183;SDS011;4133;48.752;9.088;2023-03-16T15:46:15;1.40;;;1.30;;
8183;SDS011;4133;48.752;9.088;2023-03-16T15:48:41;2.05;;;1.40;;
8183;SDS011;4133;48.752;9.088;2023-03-16T15:51:22;4.03;;;1.48;;
8183;SDS011;4133;48.752;9.088;2023-03-16T15:53:51;1.83;;;1.67;;
8183;SDS011;4133;48.752;9.088;2023-03-16T15:56:20;2.38;;;1.50;;
8183;SDS011;4133;48.752;9.088;2023-03-16T15:58:47;2.22;;;1.58;;
8183;SDS011;4133;48.752;9.088;2023-03-16T16:03:44;4.20;;;1.47;;
8183;SDS011;4133;48.752;9.088;2023-03-16T16:06:10;1.70;;;1.33;;
8183;SDS011;4133;48.752;9.088;2023-03-16T16:08:36;3.30;;;1.70;;
8183;SDS011;4133;48.752;9.088;2023-03-16T16:11:02;1.77;;;1.20;;
8183;SDS011;4133;48.752;9.088;2023-03-16T16:13:32;1.60;;;1.50;;
8183;SDS011;4133;48.752;9.088;2023-03-16T16:15:59;2.17;;;1.53;;
8183;SDS011;4133;48.752;9.088;2023-03-16T16:18:32;1.90;;;1.70;;
8183;SDS011;4133;48.752;9.088;2023-03-16T16:21:01;4.47;;;1.50;;
8183;SDS011;4133;48.752;9.088;2023-03-16T16:23:28;2.23;;;1.73;;
8183;SDS011;4133;48.752;9.088;2023-03-16T16:25:56;2.42;;;1.60;;
8183;SDS011;4133;48.752;9.088;2023-03-16T16:28:24;1.83;;;1.40;;
8183;SDS011;4133;48.752;9.088;2023-03-16T16:30:51;2.30;;;1.30;;
8183;SDS011;4133;48.752;9.088;2023-03-16T16:33:24;2.93;;;1.63;;
8183;SDS011;4133;48.752;9.088;2023-03-16T16:35:54;3.93;;;1.60;;
8183;SDS011;4133;48.752;9.088;2023-03-16T16:40:50;1.60;;;1.50;;
8183;SDS011;4133;48.752;9.088;2023-03-16T16:43:36;2.60;;;1.70;;
8183;SDS011;4133;48.752;9.088;2023-03-16T16:46:10;2.20;;;1.80;;
8183;SDS011;4133;48.752;9.088;2023-03-16T16:48:38;2.07;;;1.50;;
8183;SDS011;4133;48.752;9.088;2023-03-16T16:51:13;1.67;;;1.40;;
8183;SDS011;4133;48.752;9.088;2023-03-16T16:53:41;2.37;;;1.70;;
8183;SDS011;4133;48.752;9.088;2023-03-16T16:56:11;1.63;;;1.53;;
8183;SDS011;4133;48.752;9.088;2023-03-16T16:58:37;3.13;;;1.70;;
8183;SDS011;4133;48.752;9.088;2023-03-16T17:01:04;1.83;;;1.73;;